Time;durP1;ratioP1;P1;durP2;ratioP2;P2;SDS_P1;SDS_P2;PMS_P1;PMS_P2;Temp;Humidity;BMP_temperature;BMP_pressure;BME280_temperature;BME280_humidity;BME280_pressure;Samples;Min_cycle;Max_cycle;Signal;HPM_P1;HPM_P2
2023/05/29 00:01:21;;;;;;;;;;;20.60;92.60;;;;;;5096963;28;19912;-59
2023/05/29 00:03:46;;;;;;;;;;;20.60;92.70;;;;;;5115193;28;19961;-59
2023/05/29 00:06:13;;;;;;;;;;;20.60;92.70;;;;;;5114885;28;19915;-59
2023/05/29 00:08:38;;;;;;;;;;;20.60;92.70;;;;;;5090819;28;19908;-59
2023/05/29 00:11:04;;;;;;;;;;;20.60;92.70;;;;;;5094705;28;20313;-58
2023/05/29 00:13:30;;;;;;;;;;;20.60;92.70;;;;;;5094359;28;19962;-58
2023/05/29 00:15:56;;;;;;;;;;;20.60;92.70;;;;;;5094711;28;20374;-58
2023/05/29 00:18:21;;;;;;;;;;;20.60;92.70;;;;;;5094344;28;19950;-58
2023/05/29 00:20:47;;;;;;;;;;;20.60;92.70;;;;;;5098654;28;20004;-58
2023/05/29 00:23:12;;;;;;;;;;;20.60;92.70;;;;;;5114881;28;20369;-59
2023/05/29 00:25:40;;;;;;;;;;;20.60;92.70;;;;;;5114887;28;19915;-58
2023/05/29 00:28:07;;;;;;;;;;;20.60;92.70;;;;;;5114795;28;19957;-59
2023/05/29 00:30:32;;;;;;;;;;;20.60;92.70;;;;;;5114840;28;19907;-59
2023/05/29 00:32:58;;;;;;;;;;;20.60;92.70;;;;;;5115092;28;19907;-59
2023/05/29 00:35:24;;;;;;;;;;;20.60;92.70;;;;;;5114431;28;19908;-59
2023/05/29 00:37:49;;;;;;;;;;;20.60;92.70;;;;;;5114750;28;19908;-58
2023/05/29 00:40:15;;;;;;;;;;;20.60;92.70;;;;;;5114968;28;19915;-58
2023/05/29 00:42:40;;;;;;;;;;;20.60;92.70;;;;;;5114504;28;19920;-59
2023/05/29 00:45:06;;;;;;;;;;;20.60;92.70;;;;;;5114463;28;20355;-58
2023/05/29 00:47:32;;;;;;;;;;;20.60;92.70;;;;;;5114340;28;20311;-58
2023/05/29 00:49:58;;;;;;;;;;;20.60;92.70;;;;;;5114309;28;20006;-58
2023/05/29 00:52:24;;;;;;;;;;;20.60;92.70;;;;;;5114607;28;19915;-58
2023/05/29 00:54:50;;;;;;;;;;;20.60;92.70;;;;;;5114593;28;19914;-59
2023/05/29 00:57:16;;;;;;;;;;;20.60;92.80;;;;;;5114488;28;20345;-59
2023/05/29 00:59:42;;;;;;;;;;;20.60;92.80;;;;;;5114257;28;19908;-58
2023/05/29 01:02:07;;;;;;;;;;;20.60;92.70;;;;;;5118394;28;19908;-59
2023/05/29 01:04:35;;;;;;;;;;;20.60;92.80;;;;;;5118694;28;20018;-59
2023/05/29 01:07:02;;;;;;;;;;;20.60;92.80;;;;;;5118605;28;19908;-59
2023/05/29 01:09:31;;;;;;;;;;;20.60;92.80;;;;;;5105835;28;19908;-58
2023/05/29 01:12:19;;;;;;;;;;;20.60;92.80;;;;;;5098251;28;19915;-58
2023/05/29 01:14:51;;;;;;;;;;;20.60;92.80;;;;;;5096561;28;20323;-58
2023/05/29 01:17:31;;;;;;;;;;;20.60;92.70;;;;;;5098074;28;20304;-58
2023/05/29 01:20:16;;;;;;;;;;;20.60;92.70;;;;;;5118776;28;19914;-58
2023/05/29 01:22:53;;;;;;;;;;;20.60;92.80;;;;;;5094634;28;19908;-58
2023/05/29 01:25:21;;;;;;;;;;;20.60;92.80;;;;;;5093696;28;19963;-58
2023/05/29 01:27:47;;;;;;;;;;;20.60;92.90;;;;;;5079742;28;19908;-58
2023/05/29 01:30:14;;;;;;;;;;;20.60;92.90;;;;;;5097425;28;20259;-58
2023/05/29 01:32:41;;;;;;;;;;;20.60;92.90;;;;;;5097488;28;19916;-58
2023/05/29 01:35:06;;;;;;;;;;;20.60;93.00;;;;;;5097499;28;19908;-59
2023/05/29 01:37:32;;;;;;;;;;;20.60;92.90;;;;;;5078563;28;19908;-58
2023/05/29 01:39:57;;;;;;;;;;;20.60;93.00;;;;;;5096709;28;20382;-58
2023/05/29 01:42:23;;;;;;;;;;;20.60;93.00;;;;;;5097311;28;19908;-58
2023/05/29 01:44:49;;;;;;;;;;;20.60;93.00;;;;;;5097507;28;20023;-59
2023/05/29 01:47:15;;;;;;;;;;;20.60;93.00;;;;;;5097185;28;20283;-58
2023/05/29 01:49:42;;;;;;;;;;;20.60;93.00;;;;;;5097533;28;19919;-58
2023/05/29 01:52:07;;;;;;;;;;;20.60;93.20;;;;;;5097456;28;19908;-58
2023/05/29 01:54:33;;;;;;;;;;;20.60;93.00;;;;;;5097178;28;19930;-58
2023/05/29 01:56:59;;;;;;;;;;;20.60;93.00;;;;;;5097293;28;19908;-58
2023/05/29 01:59:24;;;;;;;;;;;20.60;93.00;;;;;;5095211;28;20307;-58
2023/05/29 02:01:50;;;;;;;;;;;20.60;93.00;;;;;;5096937;28;19934;-58
2023/05/29 02:04:15;;;;;;;;;;;20.60;93.00;;;;;;5096675;28;20006;-58
2023/05/29 02:06:41;;;;;;;;;;;20.60;92.90;;;;;;5079074;28;19916;-58
2023/05/29 02:09:06;;;;;;;;;;;20.60;93.00;;;;;;5097017;28;20006;-58
2023/05/29 02:11:32;;;;;;;;;;;20.60;92.90;;;;;;5095297;28;20410;-58
2023/05/29 02:13:57;;;;;;;;;;;20.60;92.90;;;;;;5076961;28;19912;-58
2023/05/29 02:16:23;;;;;;;;;;;20.60;92.90;;;;;;5096759;28;20308;-59
2023/05/29 02:18:48;;;;;;;;;;;20.60;92.90;;;;;;5096652;28;19973;-58
2023/05/29 02:21:14;;;;;;;;;;;20.60;92.90;;;;;;5105061;28;19908;-58
2023/05/29 02:23:40;;;;;;;;;;;20.60;92.90;;;;;;5116935;28;19923;-58
2023/05/29 02:26:05;;;;;;;;;;;20.60;92.80;;;;;;5116941;28;19908;-58
2023/05/29 02:28:31;;;;;;;;;;;20.60;92.80;;;;;;5116931;28;19958;-58
2023/05/29 02:30:56;;;;;;;;;;;20.60;92.80;;;;;;5117147;28;19950;-58
2023/05/29 02:33:22;;;;;;;;;;;20.60;92.80;;;;;;5117080;28;20005;-58
2023/05/29 02:35:47;;;;;;;;;;;20.60;92.80;;;;;;5116807;28;19912;-58
2023/05/29 02:38:13;;;;;;;;;;;20.60;92.80;;;;;;5116698;28;20012;-58
2023/05/29 02:40:39;;;;;;;;;;;20.60;92.80;;;;;;5116701;28;19916;-58
2023/05/29 02:43:05;;;;;;;;;;;20.50;92.80;;;;;;5116314;28;19920;-58
2023/05/29 02:45:30;;;;;;;;;;;20.60;92.80;;;;;;5116842;28;19942;-58
2023/05/29 02:47:55;;;;;;;;;;;20.60;92.80;;;;;;5116552;28;19911;-58
2023/05/29 02:50:21;;;;;;;;;;;20.60;92.80;;;;;;5116734;28;19912;-58
2023/05/29 02:52:46;;;;;;;;;;;20.50;92.80;;;;;;5116701;28;19908;-58
2023/05/29 02:55:12;;;;;;;;;;;20.50;92.70;;;;;;5116355;28;19952;-58
2023/05/29 02:57:38;;;;;;;;;;;20.50;92.70;;;;;;5116246;28;19908;-58
2023/05/29 03:00:07;;;;;;;;;;;20.50;92.70;;;;;;5116602;28;19951;-58
2023/05/29 03:02:34;;;;;;;;;;;20.50;92.70;;;;;;5116455;28;19978;-59
2023/05/29 03:05:00;;;;;;;;;;;20.50;92.70;;;;;;5116396;28;20381;-59
2023/05/29 03:07:25;;;;;;;;;;;20.50;92.70;;;;;;5116744;28;20374;-58
2023/05/29 03:09:52;;;;;;;;;;;20.50;92.70;;;;;;5099928;28;19939;-58
2023/05/29 03:12:18;;;;;;;;;;;20.50;92.70;;;;;;5096225;28;20307;-58
2023/05/29 03:14:44;;;;;;;;;;;20.50;92.70;;;;;;5077788;28;19915;-58
2023/05/29 03:17:09;;;;;;;;;;;20.50;92.70;;;;;;5077881;28;19908;-58
2023/05/29 03:19:35;;;;;;;;;;;20.50;92.70;;;;;;5095869;28;20013;-58
2023/05/29 03:22:00;;;;;;;;;;;20.50;92.70;;;;;;5110378;28;19973;-58
2023/05/29 03:24:27;;;;;;;;;;;20.50;92.70;;;;;;5115816;28;19922;-59
2023/05/29 03:26:52;;;;;;;;;;;20.50;92.70;;;;;;5097750;28;19930;-58
2023/05/29 03:29:18;;;;;;;;;;;20.50;92.70;;;;;;5115709;28;19908;-58
2023/05/29 03:31:43;;;;;;;;;;;20.50;92.70;;;;;;5116259;28;20346;-58
2023/05/29 03:34:09;;;;;;;;;;;20.50;92.70;;;;;;5116107;28;19908;-59
2023/05/29 03:36:36;;;;;;;;;;;20.50;92.70;;;;;;5115575;28;19915;-58
2023/05/29 03:39:02;;;;;;;;;;;20.50;92.70;;;;;;5115791;28;19915;-59
2023/05/29 03:41:27;;;;;;;;;;;20.50;92.70;;;;;;5115532;28;19912;-58
2023/05/29 03:43:53;;;;;;;;;;;20.50;92.70;;;;;;5115591;28;20240;-58
2023/05/29 03:46:18;;;;;;;;;;;20.50;92.60;;;;;;5115699;28;19908;-58
2023/05/29 03:48:44;;;;;;;;;;;20.50;92.70;;;;;;5115677;28;19915;-59
2023/05/29 03:51:10;;;;;;;;;;;20.50;92.70;;;;;;5115539;28;19915;-59
2023/05/29 03:53:35;;;;;;;;;;;20.50;92.60;;;;;;5115818;28;19908;-59
2023/05/29 03:56:01;;;;;;;;;;;20.50;92.60;;;;;;5115389;28;20353;-58
2023/05/29 03:58:26;;;;;;;;;;;20.50;92.60;;;;;;5115384;28;20009;-59
2023/05/29 04:00:52;;;;;;;;;;;20.50;92.70;;;;;;5115374;28;20358;-58
2023/05/29 04:03:17;;;;;;;;;;;20.50;92.90;;;;;;5115573;28;20382;-58
2023/05/29 04:05:43;;;;;;;;;;;20.50;92.70;;;;;;5115303;28;19957;-58
2023/05/29 04:08:08;;;;;;;;;;;20.50;92.70;;;;;;5113521;28;20006;-59
2023/05/29 04:10:34;;;;;;;;;;;20.50;92.70;;;;;;5094723;28;19908;-58
2023/05/29 04:13:00;;;;;;;;;;;20.50;92.70;;;;;;5094399;28;19908;-59
2023/05/29 04:15:30;;;;;;;;;;;20.50;92.70;;;;;;5094742;28;19908;-59
2023/05/29 04:17:55;;;;;;;;;;;20.50;92.70;;;;;;5094404;28;19991;-59
2023/05/29 04:20:21;;;;;;;;;;;20.50;92.70;;;;;;5095097;28;19961;-59
2023/05/29 04:22:46;;;;;;;;;;;20.50;92.70;;;;;;5096780;28;19908;-58
2023/05/29 04:25:12;;;;;;;;;;;20.50;92.70;;;;;;5096667;28;20374;-58
2023/05/29 04:27:38;;;;;;;;;;;20.50;92.70;;;;;;5114856;28;19914;-58
2023/05/29 04:30:04;;;;;;;;;;;20.50;92.70;;;;;;5096589;28;19908;-58
2023/05/29 04:32:30;;;;;;;;;;;20.50;92.70;;;;;;5114419;28;19920;-58
2023/05/29 04:34:55;;;;;;;;;;;20.50;92.70;;;;;;5113906;28;20038;-58
2023/05/29 04:37:28;;;;;;;;;;;20.50;92.70;;;;;;5114672;28;19918;-58
2023/05/29 04:39:55;;;;;;;;;;;20.50;92.70;;;;;;5114689;28;19914;-58
2023/05/29 04:42:20;;;;;;;;;;;20.50;92.70;;;;;;5114710;28;19927;-58
2023/05/29 04:44:46;;;;;;;;;;;20.50;92.70;;;;;;5114162;28;20018;-58
2023/05/29 04:47:12;;;;;;;;;;;20.50;92.70;;;;;;5114685;28;19908;-58
2023/05/29 04:49:39;;;;;;;;;;;20.50;92.70;;;;;;5114337;28;19908;-58
2023/05/29 04:52:04;;;;;;;;;;;20.50;92.70;;;;;;5114289;28;19996;-58
2023/05/29 04:54:30;;;;;;;;;;;20.50;92.70;;;;;;5114618;28;19977;-58
2023/05/29 04:56:55;;;;;;;;;;;20.50;92.70;;;;;;5114484;28;20311;-58
2023/05/29 04:59:21;;;;;;;;;;;20.50;92.70;;;;;;5114811;28;19911;-58
2023/05/29 05:01:47;;;;;;;;;;;20.50;92.70;;;;;;5114125;28;19994;-58
2023/05/29 05:04:12;;;;;;;;;;;20.50;92.70;;;;;;5114367;28;19950;-58
2023/05/29 05:06:38;;;;;;;;;;;20.50;92.70;;;;;;5114191;28;20310;-59
2023/05/29 05:09:04;;;;;;;;;;;20.50;92.70;;;;;;5104582;28;19908;-59
2023/05/29 05:11:30;;;;;;;;;;;20.50;92.70;;;;;;5093931;28;20003;-59
2023/05/29 05:13:55;;;;;;;;;;;20.50;92.70;;;;;;5075858;28;19915;-59
2023/05/29 05:16:20;;;;;;;;;;;20.50;92.70;;;;;;5093752;28;20236;-59
2023/05/29 05:18:46;;;;;;;;;;;20.50;92.70;;;;;;5093613;28;19908;-59
2023/05/29 05:21:11;;;;;;;;;;;20.50;92.70;;;;;;5101502;28;19907;-59
2023/05/29 05:23:37;;;;;;;;;;;20.50;92.70;;;;;;5114123;28;19923;-59
2023/05/29 05:26:02;;;;;;;;;;;20.50;92.70;;;;;;5113868;28;20034;-59
2023/05/29 05:28:28;;;;;;;;;;;20.50;92.70;;;;;;5113998;28;20270;-59
2023/05/29 05:30:53;;;;;;;;;;;20.50;92.70;;;;;;5096033;28;20002;-59
2023/05/29 05:33:19;;;;;;;;;;;20.50;92.70;;;;;;5113910;28;19908;-59
2023/05/29 05:35:45;;;;;;;;;;;20.50;92.70;;;;;;5113724;28;19908;-59
2023/05/29 05:38:11;;;;;;;;;;;20.50;92.70;;;;;;5113961;28;20002;-59
2023/05/29 05:40:36;;;;;;;;;;;20.40;92.70;;;;;;5114049;28;19955;-59
2023/05/29 05:43:02;;;;;;;;;;;20.40;92.70;;;;;;5113677;28;19920;-59
2023/05/29 05:45:27;;;;;;;;;;;20.40;92.70;;;;;;5114006;28;19916;-59
2023/05/29 05:47:52;;;;;;;;;;;20.40;92.70;;;;;;5116731;28;19969;-59
2023/05/29 05:50:18;;;;;;;;;;;20.40;92.70;;;;;;5099561;28;19912;-59
2023/05/29 05:52:43;;;;;;;;;;;20.50;92.70;;;;;;5117905;28;19999;-59
2023/05/29 05:55:09;;;;;;;;;;;20.50;92.70;;;;;;5118057;28;19908;-59
2023/05/29 05:57:35;;;;;;;;;;;20.50;92.70;;;;;;5099386;28;19951;-59
2023/05/29 06:00:04;;;;;;;;;;;20.40;92.70;;;;;;5117627;28;19912;-59
2023/05/29 06:02:29;;;;;;;;;;;20.40;92.70;;;;;;5099173;28;19968;-59
2023/05/29 06:04:55;;;;;;;;;;;20.50;92.70;;;;;;5117472;28;19916;-59
2023/05/29 06:07:20;;;;;;;;;;;20.40;92.70;;;;;;5099146;28;19962;-59
2023/05/29 06:09:46;;;;;;;;;;;20.40;92.70;;;;;;5101865;28;20224;-59
2023/05/29 06:12:12;;;;;;;;;;;20.40;92.70;;;;;;5096909;28;20012;-59
2023/05/29 06:14:37;;;;;;;;;;;20.50;92.80;;;;;;5096811;28;20308;-59
2023/05/29 06:17:03;;;;;;;;;;;20.50;92.80;;;;;;5097187;28;19908;-59
2023/05/29 06:19:28;;;;;;;;;;;20.50;92.80;;;;;;5094487;28;20008;-59
2023/05/29 06:21:54;;;;;;;;;;;20.40;92.80;;;;;;5110366;28;19995;-59
2023/05/29 06:24:20;;;;;;;;;;;20.50;92.80;;;;;;5094037;28;20343;-59
2023/05/29 06:26:45;;;;;;;;;;;20.40;92.70;;;;;;5096371;28;19922;-59
2023/05/29 06:29:11;;;;;;;;;;;20.40;92.80;;;;;;5096284;28;20359;-60
2023/05/29 06:31:36;;;;;;;;;;;20.50;92.80;;;;;;5094742;28;19915;-59
2023/05/29 06:34:02;;;;;;;;;;;20.40;92.80;;;;;;5096328;28;19912;-59
2023/05/29 06:36:27;;;;;;;;;;;20.50;92.90;;;;;;5096352;28;19915;-59
2023/05/29 06:38:53;;;;;;;;;;;20.50;92.90;;;;;;5096515;28;19919;-59
2023/05/29 06:41:18;;;;;;;;;;;20.40;92.90;;;;;;5096497;28;19908;-59
2023/05/29 06:43:43;;;;;;;;;;;20.40;92.90;;;;;;5095721;28;20018;-60
2023/05/29 06:46:09;;;;;;;;;;;20.50;93.00;;;;;;5078160;28;19908;-59
2023/05/29 06:48:35;;;;;;;;;;;20.50;93.00;;;;;;5096254;28;19909;-59
2023/05/29 06:51:01;;;;;;;;;;;20.50;93.10;;;;;;5078217;28;19961;-59
2023/05/29 06:53:26;;;;;;;;;;;20.40;93.10;;;;;;5095723;28;19908;-59
2023/05/29 06:55:52;;;;;;;;;;;20.50;93.20;;;;;;5095894;28;20312;-59
2023/05/29 06:58:18;;;;;;;;;;;20.50;93.10;;;;;;5095409;28;20010;-59
2023/05/29 07:00:43;;;;;;;;;;;20.40;93.30;;;;;;5096171;28;19908;-58
2023/05/29 07:03:08;;;;;;;;;;;20.40;93.30;;;;;;5102268;28;20380;-59
2023/05/29 07:05:34;;;;;;;;;;;20.40;93.40;;;;;;5104293;28;19974;-58
2023/05/29 07:08:00;;;;;;;;;;;20.40;93.40;;;;;;5092635;28;19916;-59
2023/05/29 07:10:25;;;;;;;;;;;20.40;92.70;;;;;;5081592;28;19954;-59
2023/05/29 07:12:50;;;;;;;;;;;20.50;92.50;;;;;;5095942;28;20003;-59
2023/05/29 07:15:16;;;;;;;;;;;20.50;92.60;;;;;;5099112;28;19912;-59
2023/05/29 07:17:41;;;;;;;;;;;20.50;92.70;;;;;;5078812;28;19913;-59
2023/05/29 07:20:07;;;;;;;;;;;20.40;92.60;;;;;;5075547;28;20323;-59
2023/05/29 07:22:33;;;;;;;;;;;20.40;92.50;;;;;;5095035;28;19908;-59
2023/05/29 07:24:58;;;;;;;;;;;20.40;92.60;;;;;;5115719;28;19916;-59
2023/05/29 07:27:24;;;;;;;;;;;20.40;92.80;;;;;;5115550;28;19968;-59
2023/05/29 07:29:50;;;;;;;;;;;20.40;92.90;;;;;;5115801;28;19908;-59
2023/05/29 07:32:15;;;;;;;;;;;20.40;93.00;;;;;;5115463;28;19914;-59
2023/05/29 07:34:41;;;;;;;;;;;20.40;93.00;;;;;;5115380;28;19987;-59
2023/05/29 07:37:07;;;;;;;;;;;20.40;92.90;;;;;;5097388;28;19907;-59
2023/05/29 07:39:33;;;;;;;;;;;20.40;93.10;;;;;;5115455;28;20308;-59
2023/05/29 07:42:01;;;;;;;;;;;20.40;93.10;;;;;;5115497;28;19908;-59
2023/05/29 07:44:26;;;;;;;;;;;20.40;93.20;;;;;;5115498;28;19965;-59
2023/05/29 07:46:51;;;;;;;;;;;20.40;93.00;;;;;;5115225;28;19908;-59
2023/05/29 07:49:17;;;;;;;;;;;20.40;92.80;;;;;;5115388;28;19931;-59
2023/05/29 07:51:43;;;;;;;;;;;20.40;92.70;;;;;;5096820;28;20002;-59
2023/05/29 07:54:08;;;;;;;;;;;20.40;92.70;;;;;;5114987;28;19908;-59
2023/05/29 07:56:34;;;;;;;;;;;20.40;92.70;;;;;;5115185;28;19908;-59
2023/05/29 07:58:59;;;;;;;;;;;20.40;92.60;;;;;;5115060;28;19953;-59
2023/05/29 08:01:26;;;;;;;;;;;20.40;92.60;;;;;;5115187;28;19907;-59
2023/05/29 08:03:51;;;;;;;;;;;20.40;92.50;;;;;;5115084;28;20004;-59
2023/05/29 08:06:17;;;;;;;;;;;20.40;92.50;;;;;;5115201;28;19912;-59
2023/05/29 08:08:43;;;;;;;;;;;20.40;92.60;;;;;;5108263;28;19909;-59
2023/05/29 08:11:08;;;;;;;;;;;20.40;92.60;;;;;;5093389;28;20325;-59
2023/05/29 08:13:34;;;;;;;;;;;20.40;92.60;;;;;;5094815;28;19908;-59
2023/05/29 08:15:59;;;;;;;;;;;20.40;92.50;;;;;;5094454;28;20049;-59
2023/05/29 08:18:25;;;;;;;;;;;20.40;92.40;;;;;;5094501;28;20355;-59
2023/05/29 08:20:52;;;;;;;;;;;20.40;92.10;;;;;;5099668;28;19911;-60
2023/05/29 08:23:18;;;;;;;;;;;20.40;92.60;;;;;;5114620;28;19908;-59
2023/05/29 08:25:43;;;;;;;;;;;20.40;92.30;;;;;;5114876;28;20265;-60
2023/05/29 08:28:09;;;;;;;;;;;20.40;92.20;;;;;;5114624;28;19912;-59
2023/05/29 08:30:34;;;;;;;;;;;20.40;92.30;;;;;;5114633;28;19988;-59
2023/05/29 08:33:00;;;;;;;;;;;20.40;92.30;;;;;;5114665;28;19912;-59
2023/05/29 08:35:25;;;;;;;;;;;20.40;92.10;;;;;;5114648;28;19957;-59
2023/05/29 08:37:51;;;;;;;;;;;20.40;92.40;;;;;;5096374;28;20355;-59
2023/05/29 08:40:16;;;;;;;;;;;20.40;92.40;;;;;;5114364;28;19908;-59
2023/05/29 08:42:55;;;;;;;;;;;20.40;92.10;;;;;;5114524;28;20315;-59
2023/05/29 08:45:22;;;;;;;;;;;20.40;92.20;;;;;;5114171;28;19924;-59
2023/05/29 08:47:51;;;;;;;;;;;20.40;92.30;;;;;;5096162;28;19908;-60
2023/05/29 08:50:17;;;;;;;;;;;20.30;92.00;;;;;;5114403;28;19915;-59
2023/05/29 08:52:43;;;;;;;;;;;20.40;91.90;;;;;;5114501;28;19911;-59
2023/05/29 08:55:09;;;;;;;;;;;20.40;92.00;;;;;;5114686;28;19908;-59
2023/05/29 08:57:36;;;;;;;;;;;20.40;92.00;;;;;;5114526;28;19934;-59
2023/05/29 09:00:08;;;;;;;;;;;20.40;92.20;;;;;;5114138;28;19953;-59
2023/05/29 09:02:35;;;;;;;;;;;20.40;92.10;;;;;;5114707;28;19907;-60
2023/05/29 09:05:00;;;;;;;;;;;20.40;92.00;;;;;;5095918;28;19919;-59
2023/05/29 09:07:26;;;;;;;;;;;20.40;92.20;;;;;;5114258;28;19976;-59
2023/05/29 09:09:51;;;;;;;;;;;20.40;91.80;;;;;;5098044;28;20002;-59
2023/05/29 09:12:17;;;;;;;;;;;20.40;91.80;;;;;;5093601;28;19931;-59
2023/05/29 09:14:44;;;;;;;;;;;20.40;91.80;;;;;;5093462;28;19951;-59
2023/05/29 09:17:10;;;;;;;;;;;20.40;92.10;;;;;;5093754;28;19908;-59
2023/05/29 09:19:37;;;;;;;;;;;20.40;92.50;;;;;;5093815;28;19969;-59
2023/05/29 09:22:04;;;;;;;;;;;20.40;92.10;;;;;;5109475;28;19986;-59
2023/05/29 09:24:30;;;;;;;;;;;20.40;92.00;;;;;;5087212;28;20606;-59
2023/05/29 09:26:57;;;;;;;;;;;20.40;92.00;;;;;;5097276;28;20354;-59
2023/05/29 09:29:22;;;;;;;;;;;20.40;92.40;;;;;;5097950;28;19908;-60
2023/05/29 09:31:48;;;;;;;;;;;20.40;92.00;;;;;;5097806;28;20351;-59
2023/05/29 09:34:14;;;;;;;;;;;20.40;92.00;;;;;;5097466;28;20015;-59
2023/05/29 09:36:40;;;;;;;;;;;20.40;92.20;;;;;;5097558;28;19914;-59
2023/05/29 09:39:09;;;;;;;;;;;20.40;91.90;;;;;;5079449;28;20007;-59
2023/05/29 09:41:43;;;;;;;;;;;20.40;92.20;;;;;;5113974;28;19943;-60
2023/05/29 09:44:13;;;;;;;;;;;20.40;92.20;;;;;;5097289;28;20260;-59
2023/05/29 09:46:40;;;;;;;;;;;20.40;91.90;;;;;;5079226;28;19953;-59
2023/05/29 09:49:11;;;;;;;;;;;20.40;92.10;;;;;;5097288;28;19915;-59
2023/05/29 09:51:37;;;;;;;;;;;20.40;91.90;;;;;;5097082;28;20278;-59
2023/05/29 09:54:15;;;;;;;;;;;20.40;92.40;;;;;;5097721;28;19915;-59
2023/05/29 09:56:42;;;;;;;;;;;20.40;92.10;;;;;;5097278;28;19912;-59
2023/05/29 09:59:10;;;;;;;;;;;20.40;91.90;;;;;;5096966;28;19915;-59
2023/05/29 10:01:36;;;;;;;;;;;20.40;91.90;;;;;;5096769;28;19908;-59
2023/05/29 10:04:02;;;;;;;;;;;20.40;92.00;;;;;;5097196;28;20317;-59
2023/05/29 10:06:29;;;;;;;;;;;20.40;92.10;;;;;;5098898;28;19912;-59
2023/05/29 10:08:55;;;;;;;;;;;20.40;92.00;;;;;;5101276;28;19912;-59
2023/05/29 10:11:26;;;;;;;;;;;20.40;92.20;;;;;;5099901;28;20248;-59
2023/05/29 10:13:52;;;;;;;;;;;20.40;92.10;;;;;;5083027;28;20323;-59
2023/05/29 10:16:21;;;;;;;;;;;20.40;92.10;;;;;;5096920;28;19908;-59
2023/05/29 10:18:54;;;;;;;;;;;20.40;92.10;;;;;;5078600;28;20366;-59
2023/05/29 10:21:20;;;;;;;;;;;20.40;91.60;;;;;;5105550;28;19990;-60
2023/05/29 10:23:47;;;;;;;;;;;20.40;91.80;;;;;;5117038;28;19969;-59
2023/05/29 10:26:23;;;;;;;;;;;20.40;91.90;;;;;;5113116;28;19919;-59
2023/05/29 10:28:54;;;;;;;;;;;20.40;92.00;;;;;;5115204;28;20003;-59
2023/05/29 10:31:23;;;;;;;;;;;20.40;92.10;;;;;;5105202;28;20313;-59
2023/05/29 10:33:55;;;;;;;;;;;20.40;92.10;;;;;;5077872;28;19919;-59
2023/05/29 10:36:23;;;;;;;;;;;20.40;92.00;;;;;;5076199;28;19951;-59
2023/05/29 10:38:50;;;;;;;;;;;20.40;91.70;;;;;;5076242;28;19915;-59
2023/05/29 10:41:26;;;;;;;;;;;20.30;91.70;;;;;;5076069;28;19970;-59
2023/05/29 10:43:53;;;;;;;;;;;20.40;92.00;;;;;;5075960;28;20428;-60
2023/05/29 10:46:19;;;;;;;;;;;20.40;91.80;;;;;;5075614;28;19908;-59
2023/05/29 10:48:44;;;;;;;;;;;20.40;91.90;;;;;;5075793;28;20363;-59
2023/05/29 10:51:24;;;;;;;;;;;20.40;91.80;;;;;;5075956;28;19995;-59
2023/05/29 10:53:50;;;;;;;;;;;20.40;91.90;;;;;;5075980;28;19916;-59
2023/05/29 10:56:19;;;;;;;;;;;20.40;92.00;;;;;;5075666;28;20011;-59
2023/05/29 10:58:50;;;;;;;;;;;20.40;92.00;;;;;;5075543;28;19961;-59
2023/05/29 11:01:16;;;;;;;;;;;20.40;91.90;;;;;;5075778;28;19954;-59
2023/05/29 11:03:42;;;;;;;;;;;20.40;91.80;;;;;;5075596;28;19913;-59
2023/05/29 11:06:17;;;;;;;;;;;20.40;91.70;;;;;;5075672;28;19915;-59
2023/05/29 11:08:46;;;;;;;;;;;20.40;91.90;;;;;;5081793;28;19912;-59
2023/05/29 11:11:13;;;;;;;;;;;20.40;92.00;;;;;;5095950;28;19915;-59
2023/05/29 11:13:40;;;;;;;;;;;20.40;91.90;;;;;;5095702;28;20240;-59
2023/05/29 11:16:25;;;;;;;;;;;20.40;91.70;;;;;;5095271;28;20384;-59
2023/05/29 11:18:51;;;;;;;;;;;20.40;91.80;;;;;;5095628;28;19909;-59
2023/05/29 11:21:29;;;;;;;;;;;20.40;91.80;;;;;;5103839;28;19908;-59
2023/05/29 11:23:57;;;;;;;;;;;20.40;92.10;;;;;;5115969;28;19922;-59
2023/05/29 11:26:25;;;;;;;;;;;20.40;91.70;;;;;;5115929;28;19908;-59
2023/05/29 11:28:50;;;;;;;;;;;20.40;91.70;;;;;;5116363;28;19912;-59
2023/05/29 11:31:17;;;;;;;;;;;20.40;91.80;;;;;;5115658;28;19914;-59
2023/05/29 11:33:47;;;;;;;;;;;20.40;91.70;;;;;;5115613;28;20374;-59
2023/05/29 11:36:13;;;;;;;;;;;20.40;91.70;;;;;;5097506;28;20398;-59
2023/05/29 11:38:39;;;;;;;;;;;20.40;91.90;;;;;;5115517;28;19912;-59
2023/05/29 11:41:04;;;;;;;;;;;20.40;91.80;;;;;;5115256;28;20355;-59
2023/05/29 11:43:30;;;;;;;;;;;20.40;91.70;;;;;;5115206;28;19977;-59
2023/05/29 11:45:56;;;;;;;;;;;20.40;91.60;;;;;;5097631;28;20410;-59
2023/05/29 11:48:23;;;;;;;;;;;20.40;91.50;;;;;;5115620;28;20322;-59
2023/05/29 11:50:48;;;;;;;;;;;20.40;91.80;;;;;;5108214;28;19912;-59
2023/05/29 11:53:14;;;;;;;;;;;20.40;91.70;;;;;;5094935;28;19946;-59
2023/05/29 11:55:39;;;;;;;;;;;20.40;91.70;;;;;;5099497;28;19912;-59
2023/05/29 11:58:05;;;;;;;;;;;20.40;91.70;;;;;;5073907;28;19966;-59
2023/05/29 12:00:37;;;;;;;;;;;20.40;91.70;;;;;;5093837;28;19919;-59
2023/05/29 12:03:04;;;;;;;;;;;20.40;92.00;;;;;;5107261;28;19911;-60
2023/05/29 12:05:30;;;;;;;;;;;20.40;91.70;;;;;;5094479;28;20371;-59
2023/05/29 12:07:56;;;;;;;;;;;20.40;91.60;;;;;;5102244;28;19929;-59
2023/05/29 12:10:22;;;;;;;;;;;20.40;91.60;;;;;;5094445;28;19908;-59
2023/05/29 12:12:48;;;;;;;;;;;20.40;91.60;;;;;;5094775;28;19913;-59
2023/05/29 12:15:14;;;;;;;;;;;20.40;91.60;;;;;;5094485;28;19951;-59
2023/05/29 12:17:40;;;;;;;;;;;20.40;91.30;;;;;;5094289;28;20326;-59
2023/05/29 12:20:08;;;;;;;;;;;20.40;91.80;;;;;;5094512;28;19991;-59
2023/05/29 12:22:35;;;;;;;;;;;20.40;91.80;;;;;;5095578;28;19907;-59
2023/05/29 12:25:09;;;;;;;;;;;20.40;91.30;;;;;;5094095;28;19920;-60
2023/05/29 12:27:41;;;;;;;;;;;20.40;91.50;;;;;;5094596;28;19965;-59
2023/05/29 12:30:08;;;;;;;;;;;20.40;91.60;;;;;;5094232;28;20366;-59
2023/05/29 12:32:34;;;;;;;;;;;20.40;91.40;;;;;;5094562;28;19912;-59
2023/05/29 12:35:00;;;;;;;;;;;20.40;91.60;;;;;;5094107;28;20445;-60
2023/05/29 12:37:25;;;;;;;;;;;20.40;91.30;;;;;;5094230;28;19951;-59
2023/05/29 12:40:29;;;;;;;;;;;20.40;91.30;;;;;;5076220;28;20320;-59
2023/05/29 12:42:56;;;;;;;;;;;20.40;91.10;;;;;;5031506;28;19913;-59
2023/05/29 12:45:22;;;;;;;;;;;20.40;91.30;;;;;;5031846;28;19921;-59
2023/05/29 12:47:51;;;;;;;;;;;20.40;91.30;;;;;;5061489;28;20019;-59
2023/05/29 12:50:20;;;;;;;;;;;20.40;91.40;;;;;;5094210;28;19912;-59
2023/05/29 12:52:52;;;;;;;;;;;20.40;91.50;;;;;;5076082;28;19930;-59
2023/05/29 12:55:17;;;;;;;;;;;20.40;91.50;;;;;;5094215;28;19912;-59
2023/05/29 12:57:45;;;;;;;;;;;20.40;91.60;;;;;;5075609;28;20422;-59
2023/05/29 13:00:11;;;;;;;;;;;20.40;91.70;;;;;;5093850;28;20323;-59
2023/05/29 13:02:36;;;;;;;;;;;20.40;91.80;;;;;;5076034;28;19915;-59
2023/05/29 13:05:02;;;;;;;;;;;20.40;91.80;;;;;;5094105;28;19912;-59
2023/05/29 13:07:27;;;;;;;;;;;20.40;91.60;;;;;;5093816;28;19912;-59
2023/05/29 13:09:53;;;;;;;;;;;20.40;91.50;;;;;;5093962;28;20243;-59
2023/05/29 13:12:18;;;;;;;;;;;20.40;91.70;;;;;;5093923;28;20279;-59
2023/05/29 13:14:44;;;;;;;;;;;20.40;91.70;;;;;;5093802;28;19908;-59
2023/05/29 13:17:09;;;;;;;;;;;20.40;91.60;;;;;;5093642;28;20271;-60
2023/05/29 13:19:35;;;;;;;;;;;20.40;91.80;;;;;;5093650;28;19954;-59
2023/05/29 13:22:00;;;;;;;;;;;20.40;91.80;;;;;;5108232;28;19911;-59
2023/05/29 13:24:26;;;;;;;;;;;20.50;92.00;;;;;;5095843;28;19912;-59
2023/05/29 13:26:51;;;;;;;;;;;20.50;92.10;;;;;;5113865;28;19951;-59
2023/05/29 13:29:16;;;;;;;;;;;20.40;92.00;;;;;;5114158;28;19907;-59
2023/05/29 13:31:42;;;;;;;;;;;20.40;91.90;;;;;;5113852;28;20406;-59
2023/05/29 13:34:07;;;;;;;;;;;20.40;92.00;;;;;;5114157;28;19930;-59
2023/05/29 13:36:33;;;;;;;;;;;20.40;91.80;;;;;;5114088;28;19907;-59
2023/05/29 13:38:58;;;;;;;;;;;20.50;91.90;;;;;;5113766;28;19908;-59
2023/05/29 13:41:24;;;;;;;;;;;20.40;91.80;;;;;;5114232;28;20052;-59
2023/05/29 13:43:50;;;;;;;;;;;20.50;91.80;;;;;;5113506;28;19926;-59
2023/05/29 13:46:15;;;;;;;;;;;20.40;91.90;;;;;;5114259;28;19912;-59
2023/05/29 13:48:41;;;;;;;;;;;20.40;91.70;;;;;;5113985;28;19908;-59
2023/05/29 13:51:06;;;;;;;;;;;20.50;91.80;;;;;;5111304;28;19988;-59
2023/05/29 13:53:32;;;;;;;;;;;20.50;92.00;;;;;;5091796;28;20351;-59
2023/05/29 13:55:57;;;;;;;;;;;20.40;91.60;;;;;;5093196;28;20365;-59
2023/05/29 13:58:23;;;;;;;;;;;20.50;91.90;;;;;;5093187;28;19915;-59
2023/05/29 14:00:48;;;;;;;;;;;20.40;92.00;;;;;;5093334;28;19908;-59
2023/05/29 14:03:14;;;;;;;;;;;20.50;91.50;;;;;;5093571;28;19985;-59
2023/05/29 14:05:39;;;;;;;;;;;20.40;91.50;;;;;;5075389;28;19912;-59
2023/05/29 14:08:05;;;;;;;;;;;20.40;91.40;;;;;;5088294;28;19916;-59
2023/05/29 14:10:30;;;;;;;;;;;20.50;91.50;;;;;;5096903;28;19912;-60
2023/05/29 14:12:56;;;;;;;;;;;20.40;91.60;;;;;;5096481;28;19913;-60